VNKT/KTM METAR and TAF weather

Enter ICAO airport designator
Station Type Date Time Source
VNKT METAR 2019/12/08 19:20 UTC NOAA

VNKT 081920Z 09003KT 6000 FEW015 08/07 Q1022 NOSIG


Station Type Date Time Source
VNKT Decoded METAR 2019/12/08 19:20 UTC NOAA

Kathmandu Airport, Nepal (VNKT) 27-42N 085-22E 1337M
Dec 08, 2019 - 02:20 PM EST / 2019.12.08 1920 UTC
Wind: from the E (090 degrees) at 3 MPH (3 KT):0
Visibility: 3 mile(s):0
Sky conditions: mostly clear
Temperature: 46 F (8 C)
Dew Point: 44 F (7 C)
Relative Humidity: 93%
Pressure (altimeter): 30.18 in. Hg (1022 hPa)
ob: VNKT 081920Z 09003KT 6000 FEW015 08/07 Q1022 NOSIG
cycle: 19

Station Type Date Time Source
VNKT TAF 2019/12/08 18:39 UTC NOAA

TAF VNKT 081700Z 0818/0918 10003KT 6000 FEW015
BECMG 0900/0902 00000KT 4000 BR FEW010 SCT025 PROB40 0901/0903 2000 BR
BECMG 0904/0905 14004KT 6000 FEW015
BECMG 0907/0909 25008KT 8000 FEW020 SCT100
BECMG 0914/0915 11003KT 6000 FEW020

Example: see airport list